sensor_id;sensor_type;location;lat;lon;timestamp;P1;durP1;ratioP1;P2;durP2;ratioP2
70165;SDS011;57541;47.408;18.822;2022-09-17T00:00:00;12.43;;;6.85;;
70165;SDS011;57541;47.408;18.822;2022-09-17T00:00:32;12.82;;;6.82;;
70165;SDS011;57541;47.408;18.822;2022-09-17T00:01:04;11.60;;;6.55;;
70165;SDS011;57541;47.408;18.822;2022-09-17T00:01:36;14.43;;;7.20;;
70165;SDS011;57541;47.408;18.822;2022-09-17T00:02:08;12.93;;;7.30;;
70165;SDS011;57541;47.408;18.822;2022-09-17T00:02:40;12.93;;;6.43;;
70165;SDS011;57541;47.408;18.822;2022-09-17T00:03:15;12.55;;;6.97;;
70165;SDS011;57541;47.408;18.822;2022-09-17T00:03:48;11.53;;;7.13;;
70165;SDS011;57541;47.408;18.822;2022-09-17T00:04:26;11.98;;;6.90;;
70165;SDS011;57541;47.408;18.822;2022-09-17T00:04:58;12.65;;;7.55;;
70165;SDS011;57541;47.408;18.822;2022-09-17T00:05:30;12.38;;;7.53;;
70165;SDS011;57541;47.408;18.822;2022-09-17T00:06:03;13.25;;;6.70;;
70165;SDS011;57541;47.408;18.822;2022-09-17T00:06:39;13.13;;;7.28;;
70165;SDS011;57541;47.408;18.822;2022-09-17T00:07:10;13.57;;;7.25;;
70165;SDS011;57541;47.408;18.822;2022-09-17T00:07:42;12.35;;;7.43;;
70165;SDS011;57541;47.408;18.822;2022-09-17T00:08:13;13.30;;;7.78;;
70165;SDS011;57541;47.408;18.822;2022-09-17T00:08:45;12.88;;;7.60;;
70165;SDS011;57541;47.408;18.822;2022-09-17T00:09:17;11.70;;;7.50;;
70165;SDS011;57541;47.408;18.822;2022-09-17T00:09:49;12.90;;;7.38;;
70165;SDS011;57541;47.408;18.822;2022-09-17T00:10:20;15.82;;;8.00;;
70165;SDS011;57541;47.408;18.822;2022-09-17T00:10:53;14.30;;;8.45;;
70165;SDS011;57541;47.408;18.822;2022-09-17T00:11:26;14.65;;;7.93;;
70165;SDS011;57541;47.408;18.822;2022-09-17T00:12:00;13.80;;;7.72;;
70165;SDS011;57541;47.408;18.822;2022-09-17T00:12:31;13.15;;;7.63;;
70165;SDS011;57541;47.408;18.822;2022-09-17T00:13:03;14.60;;;8.35;;
70165;SDS011;57541;47.408;18.822;2022-09-17T00:13:35;11.98;;;7.43;;
70165;SDS011;57541;47.408;18.822;2022-09-17T00:14:09;13.80;;;7.72;;
70165;SDS011;57541;47.408;18.822;2022-09-17T00:14:44;13.40;;;7.93;;
70165;SDS011;57541;47.408;18.822;2022-09-17T00:15:16;12.43;;;7.60;;
70165;SDS011;57541;47.408;18.822;2022-09-17T00:15:47;13.60;;;7.70;;
70165;SDS011;57541;47.408;18.822;2022-09-17T00:16:21;12.32;;;7.38;;
70165;SDS011;57541;47.408;18.822;2022-09-17T00:17:01;12.98;;;7.45;;
70165;SDS011;57541;47.408;18.822;2022-09-17T00:17:33;11.68;;;7.22;;
70165;SDS011;57541;47.408;18.822;2022-09-17T00:18:04;15.35;;;7.82;;
70165;SDS011;57541;47.408;18.822;2022-09-17T00:18:36;13.43;;;7.40;;
70165;SDS011;57541;47.408;18.822;2022-09-17T00:19:13;12.55;;;7.60;;
70165;SDS011;57541;47.408;18.822;2022-09-17T00:19:49;14.10;;;7.85;;
70165;SDS011;57541;47.408;18.822;2022-09-17T00:20:20;12.77;;;7.20;;
70165;SDS011;57541;47.408;18.822;2022-09-17T00:20:53;10.98;;;7.00;;
70165;SDS011;57541;47.408;18.822;2022-09-17T00:21:24;13.77;;;8.05;;
70165;SDS011;57541;47.408;18.822;2022-09-17T00:21:56;13.93;;;8.30;;
70165;SDS011;57541;47.408;18.822;2022-09-17T00:22:27;12.65;;;7.47;;
70165;SDS011;57541;47.408;18.822;2022-09-17T00:22:59;13.25;;;7.70;;
70165;SDS011;57541;47.408;18.822;2022-09-17T00:23:30;12.77;;;7.88;;
70165;SDS011;57541;47.408;18.822;2022-09-17T00:24:03;13.60;;;7.22;;
70165;SDS011;57541;47.408;18.822;2022-09-17T00:24:36;11.77;;;6.65;;
70165;SDS011;57541;47.408;18.822;2022-09-17T00:25:07;12.55;;;7.10;;
70165;SDS011;57541;47.408;18.822;2022-09-17T00:25:43;14.67;;;7.10;;
70165;SDS011;57541;47.408;18.822;2022-09-17T00:26:16;12.52;;;7.15;;
70165;SDS011;57541;47.408;18.822;2022-09-17T00:26:48;12.93;;;7.20;;
70165;SDS011;57541;47.408;18.822;2022-09-17T00:27:20;10.65;;;7.07;;
70165;SDS011;57541;47.408;18.822;2022-09-17T00:27:51;13.35;;;7.72;;
70165;SDS011;57541;47.408;18.822;2022-09-17T00:28:23;13.43;;;7.00;;
70165;SDS011;57541;47.408;18.822;2022-09-17T00:28:56;10.95;;;6.72;;
70165;SDS011;57541;47.408;18.822;2022-09-17T00:29:28;12.88;;;7.13;;
70165;SDS011;57541;47.408;18.822;2022-09-17T00:30:00;11.77;;;7.70;;
70165;SDS011;57541;47.408;18.822;2022-09-17T00:30:32;12.82;;;7.05;;
70165;SDS011;57541;47.408;18.822;2022-09-17T00:31:07;12.27;;;7.33;;
70165;SDS011;57541;47.408;18.822;2022-09-17T00:31:40;12.40;;;6.78;;
70165;SDS011;57541;47.408;18.822;2022-09-17T00:32:12;12.63;;;7.28;;
70165;SDS011;57541;47.408;18.822;2022-09-17T00:32:44;12.55;;;7.38;;
70165;SDS011;57541;47.408;18.822;2022-09-17T00:33:16;11.45;;;7.32;;
70165;SDS011;57541;47.408;18.822;2022-09-17T00:33:48;13.90;;;7.50;;
70165;SDS011;57541;47.408;18.822;2022-09-17T00:34:20;13.18;;;7.30;;
70165;SDS011;57541;47.408;18.822;2022-09-17T00:34:52;13.80;;;7.15;;
70165;SDS011;57541;47.408;18.822;2022-09-17T00:35:24;13.55;;;7.75;;
70165;SDS011;57541;47.408;18.822;2022-09-17T00:35:56;12.02;;;7.07;;
70165;SDS011;57541;47.408;18.822;2022-09-17T00:36:29;15.53;;;7.70;;
70165;SDS011;57541;47.408;18.822;2022-09-17T00:37:01;11.20;;;6.90;;
70165;SDS011;57541;47.408;18.822;2022-09-17T00:37:33;12.68;;;6.78;;
70165;SDS011;57541;47.408;18.822;2022-09-17T00:38:05;12.73;;;7.20;;
70165;SDS011;57541;47.408;18.822;2022-09-17T00:38:36;12.40;;;7.25;;
70165;SDS011;57541;47.408;18.822;2022-09-17T00:39:09;12.23;;;7.00;;
70165;SDS011;57541;47.408;18.822;2022-09-17T00:39:42;13.25;;;7.55;;
70165;SDS011;57541;47.408;18.822;2022-09-17T00:40:13;12.80;;;7.53;;
70165;SDS011;57541;47.408;18.822;2022-09-17T00:40:45;14.55;;;7.75;;
70165;SDS011;57541;47.408;18.822;2022-09-17T00:41:17;14.75;;;6.80;;
70165;SDS011;57541;47.408;18.822;2022-09-17T00:41:49;12.90;;;7.60;;
70165;SDS011;57541;47.408;18.822;2022-09-17T00:42:21;14.15;;;7.47;;
70165;SDS011;57541;47.408;18.822;2022-09-17T00:42:53;13.40;;;7.10;;
70165;SDS011;57541;47.408;18.822;2022-09-17T00:43:46;11.75;;;7.43;;
70165;SDS011;57541;47.408;18.822;2022-09-17T00:45:20;11.18;;;6.88;;
70165;SDS011;57541;47.408;18.822;2022-09-17T00:45:51;12.88;;;7.40;;
70165;SDS011;57541;47.408;18.822;2022-09-17T00:46:28;12.38;;;7.25;;
70165;SDS011;57541;47.408;18.822;2022-09-17T00:47:00;14.13;;;7.28;;
70165;SDS011;57541;47.408;18.822;2022-09-17T00:47:34;13.00;;;7.25;;
70165;SDS011;57541;47.408;18.822;2022-09-17T00:48:09;14.80;;;7.50;;
70165;SDS011;57541;47.408;18.822;2022-09-17T00:48:42;12.75;;;7.68;;
70165;SDS011;57541;47.408;18.822;2022-09-17T00:49:19;12.93;;;7.15;;
70165;SDS011;57541;47.408;18.822;2022-09-17T00:50:36;13.43;;;8.05;;
70165;SDS011;57541;47.408;18.822;2022-09-17T00:51:10;14.05;;;7.38;;
70165;SDS011;57541;47.408;18.822;2022-09-17T00:51:56;13.55;;;7.88;;
70165;SDS011;57541;47.408;18.822;2022-09-17T00:52:37;11.70;;;6.88;;
70165;SDS011;57541;47.408;18.822;2022-09-17T00:53:13;15.65;;;7.55;;
70165;SDS011;57541;47.408;18.822;2022-09-17T00:53:47;15.30;;;7.82;;
70165;SDS011;57541;47.408;18.822;2022-09-17T00:54:19;14.60;;;7.73;;
70165;SDS011;57541;47.408;18.822;2022-09-17T00:54:53;12.60;;;7.43;;
70165;SDS011;57541;47.408;18.822;2022-09-17T00:55:31;13.38;;;7.35;;
70165;SDS011;57541;47.408;18.822;2022-09-17T00:56:47;14.85;;;8.25;;
70165;SDS011;57541;47.408;18.822;2022-09-17T00:57:02;12.80;;;7.90;;
70165;SDS011;57541;47.408;18.822;2022-09-17T00:57:34;12.57;;;7.82;;
70165;SDS011;57541;47.408;18.822;2022-09-17T00:58:07;15.98;;;8.20;;
70165;SDS011;57541;47.408;18.822;2022-09-17T00:58:40;16.80;;;7.72;;
70165;SDS011;57541;47.408;18.822;2022-09-17T00:59:13;13.13;;;8.10;;
70165;SDS011;57541;47.408;18.822;2022-09-17T00:59:45;13.00;;;8.10;;
70165;SDS011;57541;47.408;18.822;2022-09-17T01:00:17;13.13;;;7.50;;
70165;SDS011;57541;47.408;18.822;2022-09-17T01:00:50;14.30;;;8.07;;
70165;SDS011;57541;47.408;18.822;2022-09-17T01:01:22;13.27;;;8.27;;
70165;SDS011;57541;47.408;18.822;2022-09-17T01:01:55;13.55;;;7.53;;
70165;SDS011;57541;47.408;18.822;2022-09-17T01:02:26;14.00;;;7.30;;
70165;SDS011;57541;47.408;18.822;2022-09-17T01:02:58;12.73;;;7.82;;
70165;SDS011;57541;47.408;18.822;2022-09-17T01:03:30;14.32;;;8.07;;
70165;SDS011;57541;47.408;18.822;2022-09-17T01:04:02;14.90;;;7.43;;
70165;SDS011;57541;47.408;18.822;2022-09-17T01:04:34;14.98;;;7.90;;
70165;SDS011;57541;47.408;18.822;2022-09-17T01:05:06;13.95;;;7.38;;
70165;SDS011;57541;47.408;18.822;2022-09-17T01:05:43;13.23;;;7.83;;
70165;SDS011;57541;47.408;18.822;2022-09-17T01:07:55;12.60;;;7.70;;
70165;SDS011;57541;47.408;18.822;2022-09-17T01:08:34;15.30;;;7.57;;
70165;SDS011;57541;47.408;18.822;2022-09-17T01:09:35;13.45;;;7.22;;
70165;SDS011;57541;47.408;18.822;2022-09-17T01:10:44;13.70;;;7.70;;
70165;SDS011;57541;47.408;18.822;2022-09-17T01:14:31;14.50;;;8.47;;
70165;SDS011;57541;47.408;18.822;2022-09-17T01:15:44;17.42;;;7.88;;
70165;SDS011;57541;47.408;18.822;2022-09-17T01:21:37;16.77;;;8.73;;
70165;SDS011;57541;47.408;18.822;2022-09-17T01:22:19;14.90;;;8.88;;
70165;SDS011;57541;47.408;18.822;2022-09-17T01:25:19;15.55;;;8.38;;
70165;SDS011;57541;47.408;18.822;2022-09-17T01:31:01;15.00;;;8.15;;
70165;SDS011;57541;47.408;18.822;2022-09-17T01:31:56;16.00;;;8.50;;
70165;SDS011;57541;47.408;18.822;2022-09-17T01:33:18;14.80;;;8.13;;
70165;SDS011;57541;47.408;18.822;2022-09-17T01:35:44;13.98;;;8.25;;
70165;SDS011;57541;47.408;18.822;2022-09-17T01:36:05;15.70;;;8.48;;
70165;SDS011;57541;47.408;18.822;2022-09-17T01:36:59;15.85;;;8.60;;
70165;SDS011;57541;47.408;18.822;2022-09-17T01:38:29;13.45;;;7.78;;
70165;SDS011;57541;47.408;18.822;2022-09-17T01:38:39;14.25;;;8.15;;
70165;SDS011;57541;47.408;18.822;2022-09-17T01:39:42;13.13;;;7.45;;
70165;SDS011;57541;47.408;18.822;2022-09-17T01:40:21;13.87;;;8.00;;
70165;SDS011;57541;47.408;18.822;2022-09-17T01:41:19;15.77;;;7.97;;
70165;SDS011;57541;47.408;18.822;2022-09-17T01:42:12;12.90;;;7.43;;
70165;SDS011;57541;47.408;18.822;2022-09-17T01:43:05;15.88;;;7.82;;
70165;SDS011;57541;47.408;18.822;2022-09-17T01:43:48;14.05;;;8.25;;
70165;SDS011;57541;47.408;18.822;2022-09-17T01:44:27;12.52;;;7.32;;
70165;SDS011;57541;47.408;18.822;2022-09-17T01:45:10;13.75;;;8.10;;
70165;SDS011;57541;47.408;18.822;2022-09-17T01:45:48;13.88;;;8.32;;
70165;SDS011;57541;47.408;18.822;2022-09-17T01:47:37;14.67;;;8.90;;
70165;SDS011;57541;47.408;18.822;2022-09-17T01:48:25;15.15;;;8.18;;
70165;SDS011;57541;47.408;18.822;2022-09-17T01:49:01;14.73;;;8.27;;
70165;SDS011;57541;47.408;18.822;2022-09-17T01:49:35;13.65;;;8.40;;
70165;SDS011;57541;47.408;18.822;2022-09-17T01:50:15;13.98;;;7.72;;
70165;SDS011;57541;47.408;18.822;2022-09-17T01:51:06;14.93;;;8.23;;
70165;SDS011;57541;47.408;18.822;2022-09-17T01:51:42;13.10;;;7.55;;
70165;SDS011;57541;47.408;18.822;2022-09-17T01:52:16;12.43;;;7.70;;
70165;SDS011;57541;47.408;18.822;2022-09-17T01:52:50;14.35;;;8.20;;
70165;SDS011;57541;47.408;18.822;2022-09-17T01:53:28;14.27;;;8.02;;
70165;SDS011;57541;47.408;18.822;2022-09-17T01:54:49;14.68;;;7.70;;
70165;SDS011;57541;47.408;18.822;2022-09-17T01:55:26;11.88;;;7.70;;
70165;SDS011;57541;47.408;18.822;2022-09-17T01:56:02;14.00;;;7.80;;
70165;SDS011;57541;47.408;18.822;2022-09-17T01:56:37;13.50;;;7.80;;
70165;SDS011;57541;47.408;18.822;2022-09-17T01:57:14;13.63;;;8.40;;
70165;SDS011;57541;47.408;18.822;2022-09-17T01:57:53;14.18;;;7.82;;
70165;SDS011;57541;47.408;18.822;2022-09-17T01:58:28;12.73;;;7.85;;
70165;SDS011;57541;47.408;18.822;2022-09-17T02:01:05;14.52;;;7.40;;
70165;SDS011;57541;47.408;18.822;2022-09-17T02:01:40;13.18;;;7.80;;
70165;SDS011;57541;47.408;18.822;2022-09-17T02:02:14;12.52;;;7.47;;
70165;SDS011;57541;47.408;18.822;2022-09-17T02:02:52;14.50;;;7.35;;
70165;SDS011;57541;47.408;18.822;2022-09-17T02:03:33;14.23;;;8.48;;
70165;SDS011;57541;47.408;18.822;2022-09-17T02:04:13;13.35;;;7.22;;
70165;SDS011;57541;47.408;18.822;2022-09-17T02:04:54;11.90;;;7.35;;
70165;SDS011;57541;47.408;18.822;2022-09-17T02:05:34;14.80;;;7.88;;
70165;SDS011;57541;47.408;18.822;2022-09-17T02:06:17;15.27;;;7.38;;
70165;SDS011;57541;47.408;18.822;2022-09-17T02:06:55;13.43;;;7.73;;
70165;SDS011;57541;47.408;18.822;2022-09-17T02:07:32;13.07;;;7.45;;
70165;SDS011;57541;47.408;18.822;2022-09-17T02:09:36;14.82;;;7.65;;
70165;SDS011;57541;47.408;18.822;2022-09-17T02:10:15;13.00;;;7.32;;
70165;SDS011;57541;47.408;18.822;2022-09-17T02:10:54;14.45;;;7.80;;
70165;SDS011;57541;47.408;18.822;2022-09-17T02:11:34;13.77;;;8.13;;
70165;SDS011;57541;47.408;18.822;2022-09-17T02:12:10;12.07;;;7.10;;
70165;SDS011;57541;47.408;18.822;2022-09-17T02:12:57;13.00;;;7.25;;
70165;SDS011;57541;47.408;18.822;2022-09-17T02:14:27;14.63;;;7.57;;
70165;SDS011;57541;47.408;18.822;2022-09-17T02:15:06;14.40;;;7.80;;
70165;SDS011;57541;47.408;18.822;2022-09-17T02:15:42;13.93;;;7.55;;
70165;SDS011;57541;47.408;18.822;2022-09-17T02:16:30;13.00;;;7.60;;
70165;SDS011;57541;47.408;18.822;2022-09-17T02:17:06;16.20;;;7.85;;
70165;SDS011;57541;47.408;18.822;2022-09-17T02:17:51;12.30;;;7.93;;
70165;SDS011;57541;47.408;18.822;2022-09-17T02:18:33;12.73;;;7.15;;
70165;SDS011;57541;47.408;18.822;2022-09-17T02:19:56;12.65;;;7.25;;
70165;SDS011;57541;47.408;18.822;2022-09-17T02:20:33;12.93;;;7.20;;
70165;SDS011;57541;47.408;18.822;2022-09-17T02:21:13;14.65;;;7.13;;
70165;SDS011;57541;47.408;18.822;2022-09-17T02:22:41;13.48;;;7.53;;
70165;SDS011;57541;47.408;18.822;2022-09-17T02:23:15;11.73;;;6.93;;
70165;SDS011;57541;47.408;18.822;2022-09-17T02:23:54;12.85;;;7.32;;
70165;SDS011;57541;47.408;18.822;2022-09-17T02:24:40;13.05;;;7.90;;
70165;SDS011;57541;47.408;18.822;2022-09-17T02:25:21;12.60;;;7.20;;
70165;SDS011;57541;47.408;18.822;2022-09-17T02:25:59;11.00;;;7.40;;
70165;SDS011;57541;47.408;18.822;2022-09-17T02:26:40;12.65;;;7.53;;
70165;SDS011;57541;47.408;18.822;2022-09-17T02:28:37;12.93;;;7.38;;
70165;SDS011;57541;47.408;18.822;2022-09-17T02:29:16;14.02;;;7.53;;
70165;SDS011;57541;47.408;18.822;2022-09-17T02:29:56;13.48;;;7.43;;
70165;SDS011;57541;47.408;18.822;2022-09-17T02:30:28;12.32;;;7.30;;
70165;SDS011;57541;47.408;18.822;2022-09-17T02:31:00;11.88;;;7.53;;
70165;SDS011;57541;47.408;18.822;2022-09-17T02:31:31;12.63;;;7.65;;
70165;SDS011;57541;47.408;18.822;2022-09-17T02:32:03;14.13;;;8.25;;
70165;SDS011;57541;47.408;18.822;2022-09-17T02:32:36;14.10;;;8.27;;
70165;SDS011;57541;47.408;18.822;2022-09-17T02:33:08;13.07;;;8.00;;
70165;SDS011;57541;47.408;18.822;2022-09-17T02:33:46;12.63;;;7.83;;
70165;SDS011;57541;47.408;18.822;2022-09-17T02:34:20;14.18;;;7.70;;
70165;SDS011;57541;47.408;18.822;2022-09-17T02:34:52;13.10;;;8.18;;
70165;SDS011;57541;47.408;18.822;2022-09-17T02:35:24;12.50;;;7.68;;
70165;SDS011;57541;47.408;18.822;2022-09-17T02:35:55;12.93;;;7.50;;
70165;SDS011;57541;47.408;18.822;2022-09-17T02:36:27;11.65;;;7.32;;
70165;SDS011;57541;47.408;18.822;2022-09-17T02:37:02;13.50;;;8.27;;
70165;SDS011;57541;47.408;18.822;2022-09-17T02:37:34;12.13;;;7.32;;
70165;SDS011;57541;47.408;18.822;2022-09-17T02:38:06;12.85;;;7.47;;
70165;SDS011;57541;47.408;18.822;2022-09-17T02:38:39;12.10;;;7.57;;
70165;SDS011;57541;47.408;18.822;2022-09-17T02:39:12;15.13;;;8.00;;
70165;SDS011;57541;47.408;18.822;2022-09-17T02:39:43;15.40;;;7.47;;
70165;SDS011;57541;47.408;18.822;2022-09-17T02:40:15;13.68;;;8.07;;
70165;SDS011;57541;47.408;18.822;2022-09-17T02:40:50;12.85;;;7.75;;
70165;SDS011;57541;47.408;18.822;2022-09-17T02:42:13;13.15;;;7.70;;
70165;SDS011;57541;47.408;18.822;2022-09-17T02:42:29;12.63;;;7.95;;
70165;SDS011;57541;47.408;18.822;2022-09-17T02:44:27;14.70;;;7.68;;
70165;SDS011;57541;47.408;18.822;2022-09-17T02:46:16;11.68;;;7.10;;
70165;SDS011;57541;47.408;18.822;2022-09-17T02:47:07;12.67;;;7.27;;
70165;SDS011;57541;47.408;18.822;2022-09-17T02:48:38;13.75;;;7.00;;
70165;SDS011;57541;47.408;18.822;2022-09-17T02:51:10;15.15;;;7.35;;
70165;SDS011;57541;47.408;18.822;2022-09-17T02:52:44;11.48;;;7.00;;
70165;SDS011;57541;47.408;18.822;2022-09-17T02:55:42;14.00;;;6.95;;
70165;SDS011;57541;47.408;18.822;2022-09-17T02:57:40;12.20;;;6.30;;
70165;SDS011;57541;47.408;18.822;2022-09-17T02:58:51;11.57;;;6.88;;
70165;SDS011;57541;47.408;18.822;2022-09-17T03:00:35;11.65;;;6.90;;
70165;SDS011;57541;47.408;18.822;2022-09-17T03:01:08;12.27;;;7.53;;
70165;SDS011;57541;47.408;18.822;2022-09-17T03:02:07;12.55;;;7.43;;
70165;SDS011;57541;47.408;18.822;2022-09-17T03:03:00;11.50;;;6.70;;
70165;SDS011;57541;47.408;18.822;2022-09-17T03:03:40;11.30;;;6.70;;
70165;SDS011;57541;47.408;18.822;2022-09-17T03:04:14;13.13;;;6.80;;
70165;SDS011;57541;47.408;18.822;2022-09-17T03:04:48;12.98;;;7.70;;
70165;SDS011;57541;47.408;18.822;2022-09-17T03:05:21;11.07;;;6.90;;
70165;SDS011;57541;47.408;18.822;2022-09-17T03:05:54;11.48;;;6.97;;
70165;SDS011;57541;47.408;18.822;2022-09-17T03:06:26;13.20;;;7.10;;
70165;SDS011;57541;47.408;18.822;2022-09-17T03:06:58;12.48;;;6.72;;
70165;SDS011;57541;47.408;18.822;2022-09-17T03:07:30;12.13;;;6.95;;
70165;SDS011;57541;47.408;18.822;2022-09-17T03:08:02;11.75;;;6.15;;
70165;SDS011;57541;47.408;18.822;2022-09-17T03:08:40;10.77;;;6.72;;
70165;SDS011;57541;47.408;18.822;2022-09-17T03:09:13;12.73;;;6.63;;
70165;SDS011;57541;47.408;18.822;2022-09-17T03:09:45;10.40;;;7.07;;
70165;SDS011;57541;47.408;18.822;2022-09-17T03:10:17;13.32;;;7.22;;
70165;SDS011;57541;47.408;18.822;2022-09-17T03:10:50;11.30;;;6.80;;
70165;SDS011;57541;47.408;18.822;2022-09-17T03:11:21;10.88;;;6.40;;
70165;SDS011;57541;47.408;18.822;2022-09-17T03:11:53;11.15;;;6.97;;
70165;SDS011;57541;47.408;18.822;2022-09-17T03:12:25;11.25;;;6.13;;
70165;SDS011;57541;47.408;18.822;2022-09-17T03:12:57;12.10;;;6.72;;
70165;SDS011;57541;47.408;18.822;2022-09-17T03:13:29;13.05;;;6.68;;
70165;SDS011;57541;47.408;18.822;2022-09-17T03:14:01;13.10;;;7.10;;
70165;SDS011;57541;47.408;18.822;2022-09-17T03:14:33;12.18;;;6.68;;
70165;SDS011;57541;47.408;18.822;2022-09-17T03:15:04;12.77;;;6.90;;
70165;SDS011;57541;47.408;18.822;2022-09-17T03:15:36;11.77;;;6.72;;
70165;SDS011;57541;47.408;18.822;2022-09-17T03:16:08;10.93;;;6.15;;
70165;SDS011;57541;47.408;18.822;2022-09-17T03:16:40;9.95;;;6.53;;
70165;SDS011;57541;47.408;18.822;2022-09-17T03:17:12;12.27;;;7.05;;
70165;SDS011;57541;47.408;18.822;2022-09-17T03:17:45;10.43;;;6.50;;
70165;SDS011;57541;47.408;18.822;2022-09-17T03:18:22;13.07;;;6.95;;
70165;SDS011;57541;47.408;18.822;2022-09-17T03:18:54;12.48;;;6.82;;
70165;SDS011;57541;47.408;18.822;2022-09-17T03:19:25;11.25;;;7.35;;
70165;SDS011;57541;47.408;18.822;2022-09-17T03:19:58;12.45;;;7.15;;
70165;SDS011;57541;47.408;18.822;2022-09-17T03:20:29;10.83;;;6.63;;
70165;SDS011;57541;47.408;18.822;2022-09-17T03:21:01;10.35;;;6.82;;
70165;SDS011;57541;47.408;18.822;2022-09-17T03:21:32;12.48;;;6.55;;
70165;SDS011;57541;47.408;18.822;2022-09-17T03:22:04;10.77;;;6.30;;
70165;SDS011;57541;47.408;18.822;2022-09-17T03:22:35;12.50;;;6.38;;
70165;SDS011;57541;47.408;18.822;2022-09-17T03:23:07;10.55;;;6.28;;
70165;SDS011;57541;47.408;18.822;2022-09-17T03:23:38;11.65;;;6.20;;
70165;SDS011;57541;47.408;18.822;2022-09-17T03:24:10;12.65;;;6.95;;
70165;SDS011;57541;47.408;18.822;2022-09-17T03:24:42;10.40;;;6.38;;
70165;SDS011;57541;47.408;18.822;2022-09-17T03:25:13;12.20;;;6.60;;
70165;SDS011;57541;47.408;18.822;2022-09-17T03:25:45;9.80;;;6.30;;
70165;SDS011;57541;47.408;18.822;2022-09-17T03:26:17;13.63;;;6.88;;
70165;SDS011;57541;47.408;18.822;2022-09-17T03:26:49;10.63;;;6.35;;
70165;SDS011;57541;47.408;18.822;2022-09-17T03:27:20;9.98;;;6.20;;
70165;SDS011;57541;47.408;18.822;2022-09-17T03:27:52;11.00;;;6.60;;
70165;SDS011;57541;47.408;18.822;2022-09-17T03:28:23;11.02;;;6.40;;
70165;SDS011;57541;47.408;18.822;2022-09-17T03:28:56;11.70;;;6.45;;
70165;SDS011;57541;47.408;18.822;2022-09-17T03:29:29;9.82;;;5.95;;
70165;SDS011;57541;47.408;18.822;2022-09-17T03:30:00;10.90;;;6.13;;
70165;SDS011;57541;47.408;18.822;2022-09-17T03:30:32;11.35;;;5.90;;
70165;SDS011;57541;47.408;18.822;2022-09-17T03:31:03;13.87;;;6.33;;
70165;SDS011;57541;47.408;18.822;2022-09-17T03:31:36;13.43;;;5.80;;
70165;SDS011;57541;47.408;18.822;2022-09-17T03:32:07;11.32;;;6.30;;
70165;SDS011;57541;47.408;18.822;2022-09-17T03:32:39;9.80;;;5.90;;
70165;SDS011;57541;47.408;18.822;2022-09-17T03:33:11;9.68;;;5.53;;
70165;SDS011;57541;47.408;18.822;2022-09-17T03:33:42;11.00;;;5.68;;
70165;SDS011;57541;47.408;18.822;2022-09-17T03:34:14;10.50;;;5.72;;
70165;SDS011;57541;47.408;18.822;2022-09-17T03:34:46;9.63;;;5.82;;
70165;SDS011;57541;47.408;18.822;2022-09-17T03:35:17;9.05;;;5.65;;
70165;SDS011;57541;47.408;18.822;2022-09-17T03:35:49;8.43;;;5.60;;
70165;SDS011;57541;47.408;18.822;2022-09-17T03:36:20;9.73;;;5.07;;
70165;SDS011;57541;47.408;18.822;2022-09-17T03:36:52;10.27;;;5.43;;
70165;SDS011;57541;47.408;18.822;2022-09-17T03:37:23;12.13;;;6.35;;
70165;SDS011;57541;47.408;18.822;2022-09-17T03:37:55;9.13;;;5.97;;
70165;SDS011;57541;47.408;18.822;2022-09-17T03:38:27;10.40;;;5.70;;
70165;SDS011;57541;47.408;18.822;2022-09-17T03:38:58;9.07;;;5.10;;
70165;SDS011;57541;47.408;18.822;2022-09-17T03:39:31;8.68;;;5.50;;
70165;SDS011;57541;47.408;18.822;2022-09-17T03:40:03;10.10;;;5.15;;
70165;SDS011;57541;47.408;18.822;2022-09-17T03:40:35;9.32;;;5.25;;
70165;SDS011;57541;47.408;18.822;2022-09-17T03:41:07;9.65;;;5.78;;
70165;SDS011;57541;47.408;18.822;2022-09-17T03:41:38;9.87;;;5.53;;
70165;SDS011;57541;47.408;18.822;2022-09-17T03:42:10;10.90;;;5.60;;
70165;SDS011;57541;47.408;18.822;2022-09-17T03:42:42;8.38;;;5.28;;
70165;SDS011;57541;47.408;18.822;2022-09-17T03:43:13;10.23;;;5.90;;
70165;SDS011;57541;47.408;18.822;2022-09-17T03:43:45;10.02;;;5.75;;
70165;SDS011;57541;47.408;18.822;2022-09-17T03:44:16;9.60;;;5.47;;
70165;SDS011;57541;47.408;18.822;2022-09-17T03:44:49;10.30;;;5.70;;
70165;SDS011;57541;47.408;18.822;2022-09-17T03:45:21;9.73;;;4.82;;
70165;SDS011;57541;47.408;18.822;2022-09-17T03:45:52;9.38;;;5.65;;
70165;SDS011;57541;47.408;18.822;2022-09-17T03:46:24;8.05;;;5.13;;
70165;SDS011;57541;47.408;18.822;2022-09-17T03:46:56;7.67;;;4.90;;
70165;SDS011;57541;47.408;18.822;2022-09-17T03:47:27;8.50;;;5.00;;
70165;SDS011;57541;47.408;18.822;2022-09-17T03:47:59;9.02;;;5.32;;
70165;SDS011;57541;47.408;18.822;2022-09-17T03:48:30;10.63;;;5.00;;
70165;SDS011;57541;47.408;18.822;2022-09-17T03:49:05;9.07;;;5.05;;
70165;SDS011;57541;47.408;18.822;2022-09-17T03:49:36;9.90;;;5.15;;
70165;SDS011;57541;47.408;18.822;2022-09-17T03:50:08;10.77;;;5.13;;
70165;SDS011;57541;47.408;18.822;2022-09-17T03:50:40;9.15;;;5.20;;
70165;SDS011;57541;47.408;18.822;2022-09-17T03:51:11;8.25;;;5.30;;
70165;SDS011;57541;47.408;18.822;2022-09-17T03:51:43;9.05;;;5.03;;
70165;SDS011;57541;47.408;18.822;2022-09-17T03:52:15;9.67;;;5.40;;
70165;SDS011;57541;47.408;18.822;2022-09-17T03:52:47;9.52;;;4.72;;
70165;SDS011;57541;47.408;18.822;2022-09-17T03:53:18;8.77;;;5.28;;
70165;SDS011;57541;47.408;18.822;2022-09-17T03:53:50;7.88;;;5.18;;
70165;SDS011;57541;47.408;18.822;2022-09-17T03:54:21;8.38;;;5.18;;
70165;SDS011;57541;47.408;18.822;2022-09-17T03:54:53;9.18;;;4.97;;
70165;SDS011;57541;47.408;18.822;2022-09-17T03:55:24;9.60;;;4.63;;
70165;SDS011;57541;47.408;18.822;2022-09-17T03:55:57;9.45;;;5.38;;
70165;SDS011;57541;47.408;18.822;2022-09-17T03:56:29;9.38;;;5.10;;
70165;SDS011;57541;47.408;18.822;2022-09-17T03:57:01;9.32;;;5.20;;
70165;SDS011;57541;47.408;18.822;2022-09-17T03:57:32;10.17;;;5.03;;
70165;SDS011;57541;47.408;18.822;2022-09-17T03:58:04;8.38;;;5.00;;
70165;SDS011;57541;47.408;18.822;2022-09-17T03:58:35;9.13;;;4.35;;
70165;SDS011;57541;47.408;18.822;2022-09-17T03:59:07;8.15;;;4.90;;
70165;SDS011;57541;47.408;18.822;2022-09-17T03:59:39;7.97;;;4.63;;
70165;SDS011;57541;47.408;18.822;2022-09-17T04:00:11;8.15;;;4.72;;
70165;SDS011;57541;47.408;18.822;2022-09-17T04:00:43;8.02;;;4.68;;
70165;SDS011;57541;47.408;18.822;2022-09-17T04:01:14;7.97;;;4.28;;
70165;SDS011;57541;47.408;18.822;2022-09-17T04:01:46;7.68;;;4.72;;
70165;SDS011;57541;47.408;18.822;2022-09-17T04:02:17;7.63;;;4.28;;
70165;SDS011;57541;47.408;18.822;2022-09-17T04:02:49;10.57;;;4.40;;
70165;SDS011;57541;47.408;18.822;2022-09-17T04:03:21;7.20;;;4.55;;
70165;SDS011;57541;47.408;18.822;2022-09-17T04:03:52;8.88;;;4.53;;
70165;SDS011;57541;47.408;18.822;2022-09-17T04:04:24;7.55;;;4.40;;
70165;SDS011;57541;47.408;18.822;2022-09-17T04:04:56;7.25;;;4.60;;
70165;SDS011;57541;47.408;18.822;2022-09-17T04:05:27;8.63;;;4.88;;
70165;SDS011;57541;47.408;18.822;2022-09-17T04:05:59;7.85;;;5.03;;
70165;SDS011;57541;47.408;18.822;2022-09-17T04:06:30;8.15;;;4.32;;
70165;SDS011;57541;47.408;18.822;2022-09-17T04:07:02;8.15;;;4.63;;
70165;SDS011;57541;47.408;18.822;2022-09-17T04:07:33;7.55;;;4.10;;